FIN7DZ EFHK-EFOU
Flight info
| Callsign | FIN7DZ |
|---|---|
| Flight time | 0h 46m |
| Altitude | 30000 |
| Route | TEVRU Y75 SUVIB |
| Aircraft | A320/M-SDE1E2E3FGIJ1M1RWXYZ/LB1 |
Departure
| Time | 2026-05-05 17:30 |
|---|---|
| Airport | Helsinki Vantaa Airport (EFHK) |
Arrival
| Time | 2026-05-05 18:16 |
|---|---|
| Airport | Oulu Airport (EFOU) |
| Time | Latitude | Longitude | Altitude | Speed | Heading |
|---|---|---|---|---|---|
| 2026-05-05 16:31 | 60.31708 | 24.97158 | 164 ft | 0 kts | 243° |
| 2026-05-05 17:19 | 60.31718 | 24.97196 | 163 ft | 4 kts | 243° |
| 2026-05-05 17:20 | 60.31729 | 24.97245 | 163 ft | 4 kts | 254° |
| 2026-05-05 17:20 | 60.31731 | 24.97288 | 163 ft | 4 kts | 316° |
| 2026-05-05 17:20 | 60.31713 | 24.97310 | 163 ft | 1 kts | 333° |
| 2026-05-05 17:20 | 60.31712 | 24.97311 | 163 ft | 0 kts | 333° |
| 2026-05-05 17:22 | 60.31713 | 24.97311 | 163 ft | 1 kts | 333° |
| 2026-05-05 17:23 | 60.31739 | 24.97283 | 163 ft | 8 kts | 333° |
| 2026-05-05 17:23 | 60.31809 | 24.97210 | 163 ft | 14 kts | 333° |
| 2026-05-05 17:23 | 60.31898 | 24.97118 | 163 ft | 15 kts | 333° |
| 2026-05-05 17:23 | 60.31998 | 24.97015 | 163 ft | 17 kts | 333° |
| 2026-05-05 17:24 | 60.32105 | 24.96896 | 163 ft | 18 kts | 330° |
| 2026-05-05 17:24 | 60.32217 | 24.96769 | 165 ft | 19 kts | 329° |
| 2026-05-05 17:24 | 60.32326 | 24.96639 | 169 ft | 18 kts | 329° |
| 2026-05-05 17:24 | 60.32421 | 24.96530 | 176 ft | 14 kts | 331° |
| 2026-05-05 17:25 | 60.32513 | 24.96422 | 174 ft | 17 kts | 329° |
| 2026-05-05 17:25 | 60.32584 | 24.96338 | 173 ft | 18 kts | 330° |
| 2026-05-05 17:25 | 60.32730 | 24.96167 | 172 ft | 16 kts | 330° |
| 2026-05-05 17:25 | 60.32826 | 24.96056 | 174 ft | 15 kts | 329° |
| 2026-05-05 17:26 | 60.32915 | 24.95952 | 176 ft | 14 kts | 330° |
| 2026-05-05 17:26 | 60.32996 | 24.95858 | 179 ft | 12 kts | 330° |
| 2026-05-05 17:26 | 60.33063 | 24.95778 | 181 ft | 14 kts | 327° |
| 2026-05-05 17:26 | 60.33145 | 24.95632 | 180 ft | 16 kts | 317° |
| 2026-05-05 17:27 | 60.33205 | 24.95493 | 182 ft | 10 kts | 294° |
| 2026-05-05 17:27 | 60.33186 | 24.95340 | 180 ft | 14 kts | 229° |
| 2026-05-05 17:27 | 60.33115 | 24.95167 | 177 ft | 17 kts | 245° |
| 2026-05-05 17:27 | 60.33109 | 24.94956 | 178 ft | 10 kts | 272° |
| 2026-05-05 17:28 | 60.33113 | 24.94814 | 180 ft | 8 kts | 272° |
| 2026-05-05 17:28 | 60.33115 | 24.94721 | 182 ft | 6 kts | 272° |
| 2026-05-05 17:28 | 60.33117 | 24.94635 | 196 ft | 8 kts | 272° |
| 2026-05-05 17:28 | 60.33119 | 24.94530 | 187 ft | 7 kts | 272° |
| 2026-05-05 17:29 | 60.33130 | 24.94449 | 192 ft | 6 kts | 289° |
| 2026-05-05 17:29 | 60.33108 | 24.94375 | 194 ft | 8 kts | 227° |
| 2026-05-05 17:29 | 60.32990 | 24.94114 | 190 ft | 57 kts | 227° |
| 2026-05-05 17:29 | 60.32567 | 24.93184 | 177 ft | 120 kts | 227° |
| 2026-05-05 17:30 | 60.31906 | 24.91724 | 384 ft | 149 kts | 230° |
| 2026-05-05 17:30 | 60.31201 | 24.90158 | 1055 ft | 153 kts | 231° |
| 2026-05-05 17:30 | 60.30495 | 24.88441 | 1591 ft | 167 kts | 245° |
| 2026-05-05 17:30 | 60.30193 | 24.86093 | 1996 ft | 184 kts | 272° |
| 2026-05-05 17:31 | 60.30511 | 24.83432 | 2358 ft | 210 kts | 296° |
| 2026-05-05 17:31 | 60.31210 | 24.80684 | 2897 ft | 230 kts | 295° |
| 2026-05-05 17:31 | 60.31918 | 24.77697 | 3718 ft | 239 kts | 295° |
| 2026-05-05 17:31 | 60.32725 | 24.74721 | 4695 ft | 244 kts | 298° |
| 2026-05-05 17:32 | 60.33537 | 24.71683 | 5643 ft | 247 kts | 297° |
| 2026-05-05 17:32 | 60.34351 | 24.68589 | 6537 ft | 252 kts | 297° |
| 2026-05-05 17:32 | 60.35293 | 24.65574 | 7388 ft | 258 kts | 310° |
| 2026-05-05 17:32 | 60.36752 | 24.63400 | 8258 ft | 267 kts | 333° |
| 2026-05-05 17:33 | 60.38593 | 24.62580 | 9129 ft | 278 kts | 354° |
| 2026-05-05 17:33 | 60.40502 | 24.63261 | 9915 ft | 293 kts | 18° |
| 2026-05-05 17:33 | 60.42365 | 24.65374 | 10201 ft | 321 kts | 29° |
| 2026-05-05 17:33 | 60.44291 | 24.67983 | 10532 ft | 341 kts | 30° |
| 2026-05-05 17:34 | 60.46274 | 24.70725 | 11156 ft | 350 kts | 30° |
| 2026-05-05 17:34 | 60.48310 | 24.73576 | 11732 ft | 361 kts | 30° |
| 2026-05-05 17:34 | 60.50458 | 24.76298 | 12322 ft | 365 kts | 18° |
| 2026-05-05 17:34 | 60.52881 | 24.77598 | 12954 ft | 359 kts | 357° |
| 2026-05-05 17:35 | 60.55385 | 24.77833 | 13613 ft | 363 kts | 353° |
| 2026-05-05 17:35 | 60.57928 | 24.78010 | 14212 ft | 369 kts | 353° |
| 2026-05-05 17:35 | 60.60508 | 24.78191 | 14854 ft | 373 kts | 352° |
| 2026-05-05 17:35 | 60.63117 | 24.78378 | 15503 ft | 376 kts | 352° |
| 2026-05-05 17:36 | 60.65745 | 24.78572 | 16143 ft | 380 kts | 352° |
| 2026-05-05 17:36 | 60.68400 | 24.78767 | 16790 ft | 383 kts | 351° |
| 2026-05-05 17:36 | 60.71078 | 24.78964 | 17439 ft | 387 kts | 351° |
| 2026-05-05 17:36 | 60.73784 | 24.79163 | 18080 ft | 391 kts | 351° |
| 2026-05-05 17:37 | 60.76511 | 24.79368 | 18637 ft | 394 kts | 351° |
| 2026-05-05 17:37 | 60.78329 | 24.79503 | 19009 ft | 396 kts | 351° |
| 2026-05-05 17:37 | 60.82036 | 24.79779 | 19744 ft | 401 kts | 351° |
| 2026-05-05 17:37 | 60.84802 | 24.79982 | 20320 ft | 405 kts | 350° |
| 2026-05-05 17:38 | 60.87638 | 24.80189 | 20820 ft | 410 kts | 350° |
| 2026-05-05 17:38 | 60.90504 | 24.80406 | 21355 ft | 414 kts | 350° |
| 2026-05-05 17:38 | 60.93392 | 24.80633 | 21940 ft | 418 kts | 350° |
| 2026-05-05 17:38 | 60.96314 | 24.80860 | 22457 ft | 422 kts | 350° |
| 2026-05-05 17:39 | 60.99256 | 24.81086 | 22983 ft | 425 kts | 350° |
| 2026-05-05 17:39 | 61.02230 | 24.81310 | 23472 ft | 429 kts | 350° |
| 2026-05-05 17:39 | 61.05220 | 24.81536 | 23901 ft | 432 kts | 351° |
| 2026-05-05 17:39 | 61.08234 | 24.81772 | 24342 ft | 434 kts | 351° |
| 2026-05-05 17:40 | 61.11269 | 24.82014 | 24751 ft | 437 kts | 351° |
| 2026-05-05 17:40 | 61.14321 | 24.82254 | 25167 ft | 439 kts | 351° |
| 2026-05-05 17:40 | 61.17381 | 24.82490 | 25635 ft | 442 kts | 350° |
| 2026-05-05 17:40 | 61.20428 | 24.82724 | 26008 ft | 445 kts | 350° |
| 2026-05-05 17:41 | 61.23531 | 24.82965 | 26385 ft | 447 kts | 351° |
| 2026-05-05 17:41 | 61.26660 | 24.83317 | 26767 ft | 453 kts | 352° |
| 2026-05-05 17:41 | 61.29815 | 24.83857 | 27139 ft | 457 kts | 354° |
| 2026-05-05 17:41 | 61.32996 | 24.84531 | 27506 ft | 461 kts | 355° |
| 2026-05-05 17:42 | 61.36197 | 24.85268 | 27874 ft | 464 kts | 355° |
| 2026-05-05 17:42 | 61.39413 | 24.86017 | 28237 ft | 466 kts | 355° |
| 2026-05-05 17:42 | 61.42640 | 24.86742 | 28583 ft | 468 kts | 355° |
| 2026-05-05 17:42 | 61.45893 | 24.87441 | 28913 ft | 470 kts | 354° |
| 2026-05-05 17:43 | 61.49153 | 24.88110 | 29223 ft | 472 kts | 354° |
| 2026-05-05 17:43 | 61.52434 | 24.88764 | 29446 ft | 474 kts | 354° |
| 2026-05-05 17:43 | 61.55733 | 24.89416 | 29672 ft | 476 kts | 354° |
| 2026-05-05 17:44 | 61.62350 | 24.90751 | 29738 ft | 478 kts | 354° |
| 2026-05-05 17:44 | 61.68932 | 24.92082 | 29734 ft | 479 kts | 354° |
| 2026-05-05 17:45 | 61.75575 | 24.93424 | 29732 ft | 481 kts | 354° |
| 2026-05-05 17:45 | 61.82240 | 24.94780 | 29715 ft | 480 kts | 354° |
| 2026-05-05 17:46 | 61.88918 | 24.96124 | 29737 ft | 481 kts | 354° |
| 2026-05-05 17:46 | 61.95580 | 24.97481 | 29736 ft | 481 kts | 354° |
| 2026-05-05 17:47 | 62.02244 | 24.98863 | 29729 ft | 481 kts | 354° |
| 2026-05-05 17:47 | 62.08909 | 25.00241 | 29729 ft | 481 kts | 354° |
| 2026-05-05 17:48 | 62.15529 | 25.01609 | 29721 ft | 480 kts | 354° |
| 2026-05-05 17:48 | 62.22183 | 25.02999 | 29711 ft | 480 kts | 354° |
| 2026-05-05 17:49 | 62.28845 | 25.04400 | 29712 ft | 481 kts | 354° |
| 2026-05-05 17:49 | 62.34387 | 25.05561 | 29710 ft | 481 kts | 354° |
| 2026-05-05 17:50 | 62.41051 | 25.06962 | 29706 ft | 481 kts | 354° |
| 2026-05-05 17:50 | 62.47714 | 25.08385 | 29703 ft | 481 kts | 354° |
| 2026-05-05 17:51 | 62.54378 | 25.09804 | 29704 ft | 481 kts | 354° |
| 2026-05-05 17:51 | 62.61006 | 25.11208 | 29755 ft | 481 kts | 354° |
| 2026-05-05 17:52 | 62.67653 | 25.12618 | 29701 ft | 478 kts | 354° |
| 2026-05-05 17:52 | 62.74293 | 25.14049 | 29733 ft | 479 kts | 355° |
| 2026-05-05 17:53 | 62.80919 | 25.15491 | 29720 ft | 479 kts | 355° |
| 2026-05-05 17:53 | 62.87552 | 25.16943 | 29704 ft | 478 kts | 355° |
| 2026-05-05 17:54 | 62.94175 | 25.18391 | 29700 ft | 478 kts | 355° |
| 2026-05-05 17:54 | 63.00814 | 25.19837 | 29692 ft | 478 kts | 355° |
| 2026-05-05 17:55 | 63.07395 | 25.21285 | 29719 ft | 478 kts | 357° |
| 2026-05-05 17:55 | 63.13996 | 25.22750 | 29673 ft | 476 kts | 357° |
| 2026-05-05 17:56 | 63.20602 | 25.24219 | 29663 ft | 477 kts | 357° |
| 2026-05-05 17:56 | 63.27226 | 25.25684 | 29298 ft | 477 kts | 357° |
| 2026-05-05 17:56 | 63.30518 | 25.26427 | 29007 ft | 474 kts | 357° |
| 2026-05-05 17:57 | 63.33793 | 25.27170 | 28728 ft | 472 kts | 357° |
| 2026-05-05 17:57 | 63.37051 | 25.27910 | 28449 ft | 470 kts | 357° |
| 2026-05-05 17:57 | 63.40296 | 25.28647 | 28197 ft | 466 kts | 358° |
| 2026-05-05 17:57 | 63.43507 | 25.29379 | 27922 ft | 462 kts | 358° |
| 2026-05-05 17:58 | 63.46696 | 25.30103 | 27650 ft | 460 kts | 358° |
| 2026-05-05 17:58 | 63.49830 | 25.30812 | 27251 ft | 457 kts | 359° |
| 2026-05-05 17:58 | 63.53012 | 25.31538 | 26619 ft | 451 kts | 360° |
| 2026-05-05 17:58 | 63.56119 | 25.32250 | 26008 ft | 446 kts | 0° |
| 2026-05-05 17:59 | 63.59157 | 25.32950 | 25430 ft | 441 kts | 0° |
| 2026-05-05 17:59 | 63.62198 | 25.33649 | 24838 ft | 437 kts | 0° |
| 2026-05-05 17:59 | 63.65198 | 25.34341 | 24392 ft | 429 kts | 0° |
| 2026-05-05 17:59 | 63.68179 | 25.35025 | 23765 ft | 427 kts | 1° |
| 2026-05-05 18:00 | 63.71101 | 25.35700 | 23324 ft | 420 kts | 1° |
| 2026-05-05 18:00 | 63.73997 | 25.36370 | 22859 ft | 413 kts | 2° |
| 2026-05-05 18:00 | 63.76807 | 25.37018 | 22164 ft | 410 kts | 2° |
| 2026-05-05 18:00 | 63.79621 | 25.37663 | 21788 ft | 402 kts | 2° |
| 2026-05-05 18:01 | 63.82390 | 25.38303 | 21238 ft | 398 kts | 2° |
| 2026-05-05 18:01 | 63.85127 | 25.38947 | 20795 ft | 393 kts | 2° |
| 2026-05-05 18:01 | 63.87836 | 25.39587 | 20347 ft | 388 kts | 2° |
| 2026-05-05 18:01 | 63.90507 | 25.40217 | 19881 ft | 384 kts | 2° |
| 2026-05-05 18:02 | 63.93147 | 25.40837 | 19431 ft | 380 kts | 2° |
| 2026-05-05 18:02 | 63.95761 | 25.41449 | 18974 ft | 376 kts | 3° |
| 2026-05-05 18:02 | 63.98350 | 25.42057 | 18528 ft | 372 kts | 3° |
| 2026-05-05 18:02 | 64.00908 | 25.42656 | 18052 ft | 368 kts | 3° |
| 2026-05-05 18:03 | 64.03450 | 25.43256 | 17542 ft | 365 kts | 4° |
| 2026-05-05 18:03 | 64.05967 | 25.43858 | 17063 ft | 361 kts | 4° |
| 2026-05-05 18:03 | 64.08456 | 25.44448 | 16590 ft | 358 kts | 3° |
| 2026-05-05 18:03 | 64.10925 | 25.45033 | 16121 ft | 355 kts | 3° |
| 2026-05-05 18:04 | 64.13379 | 25.45619 | 15651 ft | 353 kts | 3° |
| 2026-05-05 18:04 | 64.15812 | 25.46193 | 15177 ft | 351 kts | 3° |
| 2026-05-05 18:04 | 64.18230 | 25.46760 | 14710 ft | 348 kts | 2° |
| 2026-05-05 18:04 | 64.20632 | 25.47328 | 14246 ft | 346 kts | 3° |
| 2026-05-05 18:05 | 64.23018 | 25.47897 | 13777 ft | 344 kts | 3° |
| 2026-05-05 18:05 | 64.25367 | 25.48462 | 13307 ft | 341 kts | 3° |
| 2026-05-05 18:05 | 64.27724 | 25.49031 | 12809 ft | 339 kts | 2° |
| 2026-05-05 18:05 | 64.30060 | 25.49595 | 12329 ft | 336 kts | 2° |
| 2026-05-05 18:06 | 64.32384 | 25.50157 | 11852 ft | 334 kts | 2° |
| 2026-05-05 18:06 | 64.33939 | 25.50536 | 11529 ft | 332 kts | 2° |
| 2026-05-05 18:06 | 64.36978 | 25.51280 | 10889 ft | 329 kts | 2° |
| 2026-05-05 18:06 | 64.39231 | 25.51834 | 10622 ft | 319 kts | 2° |
| 2026-05-05 18:07 | 64.41392 | 25.52370 | 10488 ft | 306 kts | 2° |
| 2026-05-05 18:07 | 64.43474 | 25.52886 | 10347 ft | 294 kts | 2° |
| 2026-05-05 18:07 | 64.45474 | 25.53380 | 10212 ft | 283 kts | 1° |
| 2026-05-05 18:07 | 64.47411 | 25.53851 | 9945 ft | 278 kts | 1° |
| 2026-05-05 18:08 | 64.49330 | 25.54307 | 9597 ft | 276 kts | 1° |
| 2026-05-05 18:08 | 64.51231 | 25.54531 | 9213 ft | 272 kts | 356° |
| 2026-05-05 18:08 | 64.53113 | 25.54562 | 8670 ft | 269 kts | 355° |
| 2026-05-05 18:08 | 64.54986 | 25.54538 | 8112 ft | 269 kts | 354° |
| 2026-05-05 18:09 | 64.56856 | 25.54497 | 7707 ft | 268 kts | 354° |
| 2026-05-05 18:09 | 64.58715 | 25.54458 | 7296 ft | 267 kts | 354° |
| 2026-05-05 18:09 | 64.60564 | 25.54423 | 6889 ft | 265 kts | 354° |
| 2026-05-05 18:09 | 64.62408 | 25.54397 | 6488 ft | 264 kts | 354° |
| 2026-05-05 18:10 | 64.64246 | 25.54376 | 6092 ft | 263 kts | 353° |
| 2026-05-05 18:10 | 64.66050 | 25.54359 | 5681 ft | 263 kts | 353° |
| 2026-05-05 18:10 | 64.67877 | 25.54343 | 5233 ft | 263 kts | 353° |
| 2026-05-05 18:10 | 64.69704 | 25.54336 | 4817 ft | 262 kts | 354° |
| 2026-05-05 18:11 | 64.71519 | 25.54343 | 4395 ft | 260 kts | 354° |
| 2026-05-05 18:11 | 64.73310 | 25.54359 | 4093 ft | 254 kts | 354° |
| 2026-05-05 18:11 | 64.75065 | 25.54380 | 3703 ft | 251 kts | 355° |
| 2026-05-05 18:11 | 64.76803 | 25.54400 | 3362 ft | 247 kts | 355° |
| 2026-05-05 18:12 | 64.78494 | 25.54424 | 3087 ft | 240 kts | 355° |
| 2026-05-05 18:12 | 64.80142 | 25.54451 | 2832 ft | 233 kts | 354° |
| 2026-05-05 18:12 | 64.81724 | 25.54473 | 2682 ft | 222 kts | 354° |
| 2026-05-05 18:12 | 64.83236 | 25.54494 | 2541 ft | 213 kts | 354° |
| 2026-05-05 18:13 | 64.84677 | 25.54514 | 2459 ft | 202 kts | 354° |
| 2026-05-05 18:13 | 64.86062 | 25.54535 | 2215 ft | 194 kts | 354° |
| 2026-05-05 18:13 | 64.87334 | 25.54302 | 2165 ft | 171 kts | 339° |
| 2026-05-05 18:13 | 64.88308 | 25.53095 | 1948 ft | 149 kts | 310° |
| 2026-05-05 18:14 | 64.88923 | 25.51307 | 1754 ft | 130 kts | 302° |
| 2026-05-05 18:14 | 64.89381 | 25.49544 | 1572 ft | 126 kts | 298° |
| 2026-05-05 18:14 | 64.89840 | 25.47758 | 1349 ft | 128 kts | 300° |
| 2026-05-05 18:14 | 64.90307 | 25.45982 | 1095 ft | 127 kts | 299° |
| 2026-05-05 18:15 | 64.90760 | 25.44226 | 851 ft | 128 kts | 298° |
| 2026-05-05 18:15 | 64.91228 | 25.42419 | 633 ft | 129 kts | 298° |
| 2026-05-05 18:15 | 64.91684 | 25.40624 | 407 ft | 126 kts | 298° |
| 2026-05-05 18:15 | 64.92131 | 25.38874 | 216 ft | 123 kts | 299° |
| 2026-05-05 18:16 | 64.92573 | 25.37164 | 53 ft | 120 kts | 299° |
| 2026-05-05 18:16 | 64.92901 | 25.35873 | 52 ft | 60 kts | 301° |
| 2026-05-05 18:16 | 64.93039 | 25.35342 | 55 ft | 11 kts | 309° |
| 2026-05-05 18:16 | 64.93115 | 25.35235 | 53 ft | 14 kts | 337° |
| 2026-05-05 18:17 | 64.93198 | 25.35228 | 51 ft | 13 kts | 28° |
| 2026-05-05 18:17 | 64.93221 | 25.35379 | 51 ft | 8 kts | 107° |
| 2026-05-05 18:17 | 64.93196 | 25.35484 | 49 ft | 7 kts | 120° |
| 2026-05-05 18:17 | 64.93166 | 25.35600 | 52 ft | 12 kts | 122° |
| 2026-05-05 18:18 | 64.93124 | 25.35763 | 52 ft | 11 kts | 121° |
| 2026-05-05 18:18 | 64.93086 | 25.35910 | 52 ft | 10 kts | 121° |
| 2026-05-05 18:18 | 64.93052 | 25.36044 | 52 ft | 9 kts | 121° |
| 2026-05-05 18:18 | 64.93015 | 25.36191 | 52 ft | 13 kts | 121° |
| 2026-05-05 18:19 | 64.92972 | 25.36358 | 52 ft | 11 kts | 121° |
| 2026-05-05 18:19 | 64.92936 | 25.36497 | 51 ft | 9 kts | 121° |
| 2026-05-05 18:19 | 64.92896 | 25.36653 | 54 ft | 12 kts | 121° |
| 2026-05-05 18:19 | 64.92853 | 25.36822 | 54 ft | 12 kts | 121° |
| 2026-05-05 18:20 | 64.92811 | 25.36992 | 52 ft | 12 kts | 121° |
| 2026-05-05 18:20 | 64.92765 | 25.37169 | 47 ft | 12 kts | 121° |
| 2026-05-05 18:20 | 64.92758 | 25.37294 | 47 ft | 8 kts | 51° |
| 2026-05-05 18:20 | 64.92788 | 25.37339 | 50 ft | 4 kts | 29° |
| 2026-05-05 18:21 | 64.92799 | 25.37355 | 50 ft | 1 kts | 30° |
| 2026-05-05 18:21 | 64.92801 | 25.37358 | 51 ft | 0 kts | 31° |